createdAt,value
2022-08-25T00:00:56.294Z,0.00
2022-08-25T00:01:56.259Z,0.00
2022-08-25T00:02:56.766Z,0.00
2022-08-25T00:03:56.233Z,0.00
2022-08-25T00:04:56.250Z,0.00
2022-08-25T00:05:56.323Z,0.00
2022-08-25T00:07:00.688Z,0.00
2022-08-25T00:07:57.275Z,0.00
2022-08-25T00:08:56.194Z,0.00
2022-08-25T00:09:56.167Z,0.00
2022-08-25T00:11:03.533Z,0.00
2022-08-25T00:11:57.163Z,0.00
2022-08-25T00:12:56.140Z,0.00
2022-08-25T00:13:56.119Z,0.00
2022-08-25T00:14:56.110Z,0.00
2022-08-25T00:15:56.135Z,0.00
2022-08-25T00:16:56.333Z,0.00
2022-08-25T00:17:56.076Z,0.00
2022-08-25T00:18:56.067Z,0.00
2022-08-25T00:19:56.048Z,0.00
2022-08-25T00:20:56.045Z,0.00
2022-08-25T00:21:56.058Z,0.00
2022-08-25T00:22:56.076Z,0.00
2022-08-25T00:23:56.007Z,0.00
2022-08-25T00:24:55.995Z,0.00
2022-08-25T00:25:55.988Z,0.00
2022-08-25T00:26:55.983Z,0.00
2022-08-25T00:27:55.982Z,0.00
2022-08-25T00:29:01.665Z,0.00
2022-08-25T00:29:56.935Z,0.00
2022-08-25T00:30:56.008Z,0.00
2022-08-25T00:31:55.921Z,0.00
2022-08-25T00:32:57.545Z,0.00
2022-08-25T00:33:55.889Z,0.00
2022-08-25T00:34:55.917Z,0.00
2022-08-25T00:35:55.947Z,0.00
2022-08-25T00:36:55.860Z,0.00
2022-08-25T00:37:55.871Z,0.00
2022-08-25T00:38:55.860Z,0.00
2022-08-25T00:39:55.868Z,0.00
2022-08-25T00:40:55.881Z,0.00
2022-08-25T00:41:55.809Z,0.00
2022-08-25T00:42:55.790Z,0.00
2022-08-25T00:43:55.807Z,0.00
2022-08-25T00:44:56.441Z,0.00
2022-08-25T00:45:55.814Z,0.00
2022-08-25T00:46:55.746Z,0.00
2022-08-25T00:47:56.728Z,0.00
2022-08-25T00:48:55.743Z,0.00
2022-08-25T00:49:55.730Z,0.00
2022-08-25T00:50:55.696Z,0.00
2022-08-25T00:51:55.727Z,0.00
2022-08-25T00:52:55.678Z,0.00
2022-08-25T00:53:55.664Z,0.00
2022-08-25T00:54:55.675Z,0.00
2022-08-25T00:55:55.649Z,0.00
2022-08-25T00:56:55.645Z,0.00
2022-08-25T00:57:55.619Z,0.00
2022-08-25T00:58:55.671Z,0.00
2022-08-25T00:59:55.618Z,0.00
2022-08-25T01:00:55.610Z,0.00
2022-08-25T01:01:55.616Z,0.00
2022-08-25T01:02:55.685Z,0.00
2022-08-25T01:03:55.547Z,0.00
2022-08-25T01:04:55.563Z,0.00
2022-08-25T01:05:55.551Z,0.00
2022-08-25T01:06:55.517Z,0.00
2022-08-25T01:07:57.530Z,0.00
2022-08-25T01:08:55.493Z,0.00
2022-08-25T01:09:55.482Z,0.00
2022-08-25T01:10:55.558Z,0.00
2022-08-25T01:11:55.482Z,0.00
2022-08-25T01:12:55.451Z,0.00
2022-08-25T01:13:55.436Z,0.00
2022-08-25T01:14:55.436Z,0.00
2022-08-25T01:15:55.470Z,0.00
2022-08-25T01:16:55.456Z,0.00
2022-08-25T01:17:55.412Z,0.00
2022-08-25T01:18:55.374Z,0.00
2022-08-25T01:19:55.366Z,0.00
2022-08-25T01:20:55.357Z,0.00
2022-08-25T01:21:55.367Z,0.00
2022-08-25T01:22:55.534Z,0.00
2022-08-25T01:23:55.322Z,0.00
2022-08-25T01:24:55.307Z,0.00
2022-08-25T01:25:55.297Z,0.00
2022-08-25T01:26:55.314Z,0.00
2022-08-25T01:27:55.302Z,0.00
2022-08-25T01:28:55.279Z,0.00
2022-08-25T01:29:55.252Z,0.00
2022-08-25T01:30:55.321Z,0.00
2022-08-25T01:31:55.231Z,0.00
2022-08-25T01:32:55.270Z,0.00
2022-08-25T01:33:55.212Z,0.00
2022-08-25T01:34:55.233Z,0.00
2022-08-25T01:35:55.190Z,0.00
2022-08-25T01:36:55.177Z,0.00
2022-08-25T01:37:55.163Z,0.00
2022-08-25T01:38:55.178Z,0.00
2022-08-25T01:39:55.177Z,0.00
2022-08-25T01:40:55.163Z,0.00
2022-08-25T01:41:55.129Z,0.00
2022-08-25T01:42:55.123Z,0.00
2022-08-25T01:43:55.133Z,0.00
2022-08-25T01:44:55.090Z,0.00
2022-08-25T01:45:55.127Z,0.00
2022-08-25T01:46:55.070Z,0.00
2022-08-25T01:47:55.073Z,0.00
2022-08-25T01:48:55.086Z,0.00
2022-08-25T01:49:55.033Z,0.00
2022-08-25T01:50:55.024Z,0.00
2022-08-25T01:51:55.020Z,0.00
2022-08-25T01:52:55.008Z,0.00
2022-08-25T01:53:55.021Z,0.00
2022-08-25T01:54:55.010Z,0.00
2022-08-25T01:55:54.971Z,0.00
2022-08-25T01:56:54.958Z,0.00
2022-08-25T01:57:54.947Z,0.00
2022-08-25T01:58:54.939Z,0.00
2022-08-25T01:59:54.967Z,0.00
2022-08-25T02:00:54.919Z,0.00
2022-08-25T02:01:59.721Z,0.00
2022-08-25T02:02:55.981Z,0.00
2022-08-25T02:03:54.884Z,0.00
2022-08-25T02:04:54.898Z,0.00
2022-08-25T02:05:54.902Z,0.00
2022-08-25T02:06:54.848Z,0.00
2022-08-25T02:07:54.837Z,0.00
2022-08-25T02:08:54.829Z,0.00
2022-08-25T02:09:55.776Z,0.00
2022-08-25T02:10:54.839Z,0.00
2022-08-25T02:11:54.818Z,0.00
2022-08-25T02:12:54.788Z,0.00
2022-08-25T02:13:54.776Z,0.00
2022-08-25T02:14:54.764Z,0.00
2022-08-25T02:15:54.753Z,0.00
2022-08-25T02:16:54.810Z,0.00
2022-08-25T02:17:54.733Z,0.00
2022-08-25T02:18:54.717Z,0.00
2022-08-25T02:19:54.717Z,0.00
2022-08-25T02:20:54.697Z,0.00
2022-08-25T02:21:54.711Z,0.00
2022-08-25T02:22:57.064Z,0.00
2022-08-25T02:23:54.668Z,0.00
2022-08-25T02:24:54.677Z,0.00
2022-08-25T02:25:54.642Z,0.00
2022-08-25T02:26:54.630Z,0.00
2022-08-25T02:27:54.623Z,0.00
2022-08-25T02:28:54.696Z,0.00
2022-08-25T02:29:54.600Z,0.00
2022-08-25T02:31:01.168Z,0.00
2022-08-25T02:31:55.573Z,0.00
2022-08-25T02:32:54.571Z,0.00
2022-08-25T02:33:54.576Z,0.00
2022-08-25T02:34:54.563Z,0.00
2022-08-25T02:35:54.536Z,0.00
2022-08-25T02:36:54.535Z,0.00
2022-08-25T02:37:54.518Z,0.00
2022-08-25T02:38:54.518Z,0.00
2022-08-25T02:39:54.549Z,0.00
2022-08-25T02:40:54.483Z,0.00
2022-08-25T02:41:54.496Z,0.00
2022-08-25T02:42:54.463Z,0.00
2022-08-25T02:43:54.459Z,0.00
2022-08-25T02:44:54.459Z,0.00
2022-08-25T02:45:54.511Z,0.00
2022-08-25T02:46:54.411Z,0.00
2022-08-25T02:47:54.432Z,0.00
2022-08-25T02:48:54.395Z,0.00
2022-08-25T02:49:54.381Z,0.00
2022-08-25T02:50:54.395Z,0.00
2022-08-25T02:51:54.358Z,0.00
2022-08-25T02:52:54.355Z,0.00
2022-08-25T02:53:54.358Z,0.00
2022-08-25T02:54:54.354Z,0.00
2022-08-25T02:55:54.316Z,0.00
2022-08-25T02:56:54.305Z,0.00
2022-08-25T02:57:54.297Z,0.00
2022-08-25T02:58:54.293Z,0.00
2022-08-25T02:59:54.326Z,0.00
2022-08-25T03:00:54.365Z,0.00
2022-08-25T03:01:54.251Z,0.00
2022-08-25T03:02:54.237Z,0.00
2022-08-25T03:03:54.270Z,0.00
2022-08-25T03:04:55.143Z,0.00
2022-08-25T03:05:54.250Z,0.00
2022-08-25T03:06:54.195Z,0.00
2022-08-25T03:07:54.185Z,0.00
2022-08-25T03:08:54.174Z,0.00
2022-08-25T03:09:54.161Z,0.00
2022-08-25T03:10:54.164Z,0.00
2022-08-25T03:11:54.132Z,0.00
2022-08-25T03:12:54.162Z,0.00
2022-08-25T03:13:54.114Z,0.00
2022-08-25T03:14:54.102Z,0.00
2022-08-25T03:15:54.113Z,0.00
2022-08-25T03:16:54.129Z,0.00
2022-08-25T03:17:54.074Z,0.00
2022-08-25T03:18:54.087Z,0.00
2022-08-25T03:19:54.047Z,0.00
2022-08-25T03:20:54.044Z,0.00
2022-08-25T03:21:54.063Z,0.00
2022-08-25T03:22:54.013Z,0.00
2022-08-25T03:23:54.008Z,0.00
2022-08-25T03:24:54.025Z,0.00
2022-08-25T03:25:53.981Z,0.00
2022-08-25T03:27:03.998Z,0.00
2022-08-25T03:27:54.130Z,0.00
2022-08-25T03:28:54.021Z,0.00
2022-08-25T03:29:54.106Z,0.00
2022-08-25T03:30:56.282Z,0.00
2022-08-25T03:31:53.983Z,0.00
2022-08-25T03:32:53.936Z,0.00
2022-08-25T03:33:53.893Z,0.00
2022-08-25T03:34:53.878Z,0.00
2022-08-25T03:35:53.889Z,0.00
2022-08-25T03:36:53.881Z,0.00
2022-08-25T03:37:53.847Z,0.00
2022-08-25T03:38:53.833Z,0.00
2022-08-25T03:39:53.874Z,0.00
2022-08-25T03:40:53.854Z,0.00
2022-08-25T03:41:53.807Z,0.00
2022-08-25T03:42:53.788Z,0.00
2022-08-25T03:43:53.783Z,0.00
2022-08-25T03:44:53.768Z,0.00
2022-08-25T03:45:53.855Z,0.00
2022-08-25T03:46:53.790Z,0.00
2022-08-25T03:47:53.733Z,0.00
2022-08-25T03:48:53.719Z,0.00
2022-08-25T03:49:53.727Z,0.00
2022-08-25T03:50:53.698Z,0.00
2022-08-25T03:51:53.710Z,0.00
2022-08-25T03:52:53.739Z,0.00
2022-08-25T03:53:53.667Z,0.00
2022-08-25T03:54:53.657Z,0.00
2022-08-25T03:55:53.644Z,0.00
2022-08-25T03:56:53.631Z,0.00
2022-08-25T03:57:53.621Z,0.00
2022-08-25T03:58:53.649Z,0.00
2022-08-25T03:59:53.597Z,0.00
2022-08-25T04:00:53.626Z,0.00
2022-08-25T04:01:55.458Z,0.00
2022-08-25T04:02:53.563Z,0.00
2022-08-25T04:03:53.581Z,0.00
2022-08-25T04:04:53.572Z,0.00
2022-08-25T04:05:53.567Z,0.00
2022-08-25T04:06:53.517Z,0.00
2022-08-25T04:07:53.508Z,0.00
2022-08-25T04:08:53.497Z,0.00
2022-08-25T04:09:53.502Z,0.00
2022-08-25T04:10:53.516Z,0.00
2022-08-25T04:11:53.616Z,0.00
2022-08-25T04:12:53.448Z,0.00
2022-08-25T04:13:53.486Z,0.00
2022-08-25T04:14:53.426Z,0.00
2022-08-25T04:15:53.447Z,0.00
2022-08-25T04:16:54.366Z,0.00
2022-08-25T04:17:53.421Z,0.00
2022-08-25T04:18:53.382Z,5.62
2022-08-25T04:19:53.372Z,5.62
2022-08-25T04:20:53.420Z,5.62
2022-08-25T04:21:57.287Z,5.62
2022-08-25T04:22:53.385Z,5.62
2022-08-25T04:23:53.332Z,5.62
2022-08-25T04:24:53.332Z,5.62
2022-08-25T04:25:53.331Z,5.62
2022-08-25T04:26:53.298Z,5.62
2022-08-25T04:27:53.312Z,5.62
2022-08-25T04:28:53.336Z,5.62
2022-08-25T04:29:53.265Z,5.62
2022-08-25T04:30:53.279Z,11.25
2022-08-25T04:31:53.925Z,11.25
2022-08-25T04:32:53.233Z,11.25
2022-08-25T04:33:53.225Z,11.25
2022-08-25T04:34:53.227Z,11.25
2022-08-25T04:35:53.224Z,11.25
2022-08-25T04:36:53.187Z,11.25
2022-08-25T04:37:53.181Z,11.25
2022-08-25T04:38:53.172Z,11.25
2022-08-25T04:39:53.266Z,11.25
2022-08-25T04:40:53.161Z,11.25
2022-08-25T04:41:53.152Z,16.88
2022-08-25T04:42:53.120Z,16.88
2022-08-25T04:43:53.128Z,16.88
2022-08-25T04:44:53.095Z,16.88
2022-08-25T04:45:53.145Z,16.88
2022-08-25T04:46:53.114Z,16.88
2022-08-25T04:47:55.079Z,16.88
2022-08-25T04:48:53.049Z,16.88
2022-08-25T04:49:53.058Z,16.88
2022-08-25T04:50:53.031Z,22.50
2022-08-25T04:51:53.037Z,22.50
2022-08-25T04:52:53.050Z,22.50
2022-08-25T04:53:53.017Z,22.50
2022-08-25T04:54:52.977Z,22.50
2022-08-25T04:55:52.973Z,22.50
2022-08-25T04:56:54.430Z,22.50
2022-08-25T04:57:53.950Z,22.50
2022-08-25T04:58:52.953Z,22.50
2022-08-25T04:59:52.928Z,28.12
2022-08-25T05:00:52.984Z,28.12
2022-08-25T05:01:52.907Z,28.12
2022-08-25T05:02:52.895Z,28.12
2022-08-25T05:03:52.929Z,28.12
2022-08-25T05:04:52.950Z,28.12
2022-08-25T05:05:52.885Z,28.12
2022-08-25T05:06:52.849Z,28.12
2022-08-25T05:07:52.846Z,28.12
2022-08-25T05:08:52.845Z,28.12
2022-08-25T05:09:52.815Z,28.12
2022-08-25T05:10:52.823Z,28.12
2022-08-25T05:11:52.795Z,28.12
2022-08-25T05:12:52.781Z,28.12
2022-08-25T05:13:52.795Z,28.12
2022-08-25T05:14:52.764Z,33.75
2022-08-25T05:15:52.752Z,33.75
2022-08-25T05:16:52.865Z,33.75
2022-08-25T05:17:55.988Z,33.75
2022-08-25T05:18:52.735Z,33.75
2022-08-25T05:19:52.706Z,33.75
2022-08-25T05:20:52.696Z,33.75
2022-08-25T05:21:52.683Z,39.38
2022-08-25T05:22:52.710Z,39.38
2022-08-25T05:23:52.679Z,39.38
2022-08-25T05:24:52.657Z,39.38
2022-08-25T05:25:52.637Z,39.38
2022-08-25T05:26:52.626Z,39.38
2022-08-25T05:27:52.638Z,39.38
2022-08-25T05:28:52.637Z,39.38
2022-08-25T05:29:52.595Z,39.38
2022-08-25T05:30:52.602Z,45.00
2022-08-25T05:31:52.633Z,45.00
2022-08-25T05:32:52.561Z,45.00
2022-08-25T05:33:52.570Z,45.00
2022-08-25T05:34:52.579Z,45.00
2022-08-25T05:35:52.548Z,45.00
2022-08-25T05:36:52.518Z,45.00
2022-08-25T05:37:52.507Z,45.00
2022-08-25T05:38:52.516Z,45.00
2022-08-25T05:39:52.545Z,50.62
2022-08-25T05:40:52.492Z,50.62
2022-08-25T05:41:52.483Z,50.62
2022-08-25T05:42:52.455Z,50.62
2022-08-25T05:43:52.465Z,50.62
2022-08-25T05:44:52.429Z,50.62
2022-08-25T05:45:52.472Z,50.62
2022-08-25T05:46:52.435Z,50.62
2022-08-25T05:47:52.397Z,56.25
2022-08-25T05:48:52.407Z,56.25
2022-08-25T05:49:52.389Z,56.25
2022-08-25T05:50:52.362Z,56.25
2022-08-25T05:51:52.380Z,56.25
2022-08-25T05:52:52.351Z,56.25
2022-08-25T05:53:52.327Z,56.25
2022-08-25T05:54:52.461Z,56.25
2022-08-25T05:56:42.714Z,56.25
2022-08-25T05:57:42.683Z,56.25
2022-08-25T05:58:42.685Z,61.88
2022-08-25T05:59:42.686Z,61.88
2022-08-25T06:00:42.682Z,61.88
2022-08-25T06:01:43.332Z,61.88
2022-08-25T06:02:42.633Z,61.88
2022-08-25T06:03:42.704Z,61.88
2022-08-25T06:04:42.622Z,67.50
2022-08-25T06:05:42.619Z,67.50
2022-08-25T06:06:42.585Z,67.50
2022-08-25T06:07:42.565Z,67.50
2022-08-25T06:08:42.566Z,67.50
2022-08-25T06:09:42.567Z,67.50
2022-08-25T06:10:42.535Z,73.12
2022-08-25T06:11:42.539Z,73.12
2022-08-25T06:12:42.511Z,78.75
2022-08-25T06:13:42.498Z,123.75
2022-08-25T06:14:42.494Z,146.25
2022-08-25T06:15:42.612Z,123.75
2022-08-25T06:16:42.528Z,360.00
2022-08-25T06:17:42.449Z,888.75
2022-08-25T06:18:42.440Z,1226.25
2022-08-25T06:19:42.437Z,1310.62
2022-08-25T06:20:42.423Z,1366.88
2022-08-25T06:21:42.430Z,1372.50
2022-08-25T06:22:42.399Z,1344.38
2022-08-25T06:23:42.383Z,1288.12
2022-08-25T06:24:42.402Z,1125.00
2022-08-25T06:25:42.369Z,894.38
2022-08-25T06:26:42.349Z,770.62
2022-08-25T06:27:42.361Z,905.62
2022-08-25T06:28:42.341Z,1209.38
2022-08-25T06:29:42.334Z,1400.62
2022-08-25T06:30:42.320Z,1327.50
2022-08-25T06:31:42.385Z,1276.88
2022-08-25T06:32:42.279Z,1293.75
2022-08-25T06:33:42.281Z,1254.38
2022-08-25T06:34:42.348Z,1181.25
2022-08-25T06:35:42.278Z,1147.50
2022-08-25T06:36:42.246Z,1192.50
2022-08-25T06:37:42.241Z,1299.38
2022-08-25T06:38:42.242Z,1361.25
2022-08-25T06:39:42.203Z,1355.62
2022-08-25T06:40:42.213Z,1389.38
2022-08-25T06:41:42.215Z,1428.75
2022-08-25T06:42:42.193Z,1321.88
2022-08-25T06:43:47.964Z,781.88
2022-08-25T06:44:43.168Z,236.25
2022-08-25T06:45:42.138Z,146.25
2022-08-25T06:46:42.187Z,135.00
2022-08-25T06:47:42.121Z,123.75
2022-08-25T06:48:42.113Z,118.12
2022-08-25T06:49:42.135Z,118.12
2022-08-25T06:50:42.088Z,112.50
2022-08-25T06:51:42.073Z,112.50
2022-08-25T06:52:42.091Z,112.50
2022-08-25T06:53:42.055Z,112.50
2022-08-25T06:54:42.039Z,106.88
2022-08-25T06:55:42.035Z,106.88
2022-08-25T06:56:42.027Z,101.25
2022-08-25T06:57:42.025Z,101.25
2022-08-25T06:58:42.035Z,101.25
2022-08-25T06:59:42.041Z,101.25
2022-08-25T07:00:42.084Z,101.25
2022-08-25T07:01:42.100Z,101.25
2022-08-25T07:02:42.110Z,95.62
2022-08-25T07:03:41.995Z,95.62
2022-08-25T07:04:41.997Z,95.62
2022-08-25T07:05:43.963Z,95.62
2022-08-25T07:06:41.931Z,95.62
2022-08-25T07:07:43.608Z,95.62
2022-08-25T07:08:41.879Z,95.62
2022-08-25T07:09:41.870Z,95.62
2022-08-25T07:10:41.871Z,95.62
2022-08-25T07:11:42.907Z,95.62
2022-08-25T07:12:41.843Z,90.00
2022-08-25T07:13:41.824Z,84.38
2022-08-25T07:14:44.250Z,90.00
2022-08-25T07:15:42.830Z,90.00
2022-08-25T07:16:45.986Z,84.38
2022-08-25T07:17:42.777Z,84.38
2022-08-25T07:18:41.791Z,84.38
2022-08-25T07:19:41.762Z,84.38
2022-08-25T07:20:41.827Z,84.38
2022-08-25T07:21:41.770Z,84.38
2022-08-25T07:22:41.782Z,84.38
2022-08-25T07:23:41.840Z,84.38
2022-08-25T07:24:41.758Z,84.38
2022-08-25T07:25:41.792Z,84.38
2022-08-25T07:26:41.764Z,84.38
2022-08-25T07:27:42.284Z,84.38
2022-08-25T07:28:47.421Z,84.38
2022-08-25T07:29:42.850Z,78.75
2022-08-25T07:30:41.723Z,78.75
2022-08-25T07:31:41.871Z,78.75
2022-08-25T07:33:42.684Z,78.75
2022-08-25T07:34:41.681Z,78.75
2022-08-25T07:35:43.806Z,78.75
2022-08-25T07:36:41.630Z,78.75
2022-08-25T07:37:49.831Z,78.75
2022-08-25T07:38:42.652Z,78.75
2022-08-25T07:39:41.589Z,78.75
2022-08-25T07:40:42.958Z,78.75
2022-08-25T07:41:41.588Z,78.75
2022-08-25T07:42:41.549Z,78.75
2022-08-25T07:43:41.504Z,78.75
2022-08-25T07:44:41.536Z,78.75
2022-08-25T07:45:49.214Z,84.38
2022-08-25T07:46:42.651Z,84.38
2022-08-25T07:47:41.461Z,84.38
2022-08-25T07:48:41.476Z,84.38
2022-08-25T07:49:41.471Z,84.38
2022-08-25T07:50:41.415Z,84.38
2022-08-25T07:52:04.185Z,84.38
2022-08-25T07:52:42.405Z,84.38
2022-08-25T07:53:41.382Z,84.38
2022-08-25T07:54:41.403Z,78.75
2022-08-25T07:55:41.379Z,78.75
2022-08-25T07:56:41.354Z,84.38
2022-08-25T07:57:41.340Z,84.38
2022-08-25T07:58:41.331Z,84.38
2022-08-25T07:59:41.344Z,84.38
2022-08-25T08:00:42.279Z,84.38
2022-08-25T08:01:41.372Z,84.38
2022-08-25T08:02:41.481Z,84.38
2022-08-25T08:03:50.918Z,84.38
2022-08-25T08:04:42.270Z,84.38
2022-08-25T08:05:41.271Z,84.38
2022-08-25T08:06:41.281Z,84.38
2022-08-25T08:07:43.411Z,84.38
2022-08-25T08:08:41.224Z,84.38
2022-08-25T08:09:41.239Z,84.38
2022-08-25T08:11:02.761Z,84.38
2022-08-25T08:11:53.672Z,84.38
2022-08-25T08:12:42.194Z,84.38
2022-08-25T08:13:41.593Z,84.38
2022-08-25T08:14:45.085Z,84.38
2022-08-25T08:15:42.204Z,90.00
2022-08-25T08:16:41.157Z,90.00
2022-08-25T08:17:41.130Z,90.00
2022-08-25T08:18:41.130Z,90.00
2022-08-25T08:19:44.860Z,90.00
2022-08-25T08:20:43.198Z,84.38
2022-08-25T08:21:41.108Z,90.00
2022-08-25T08:22:41.075Z,84.38
2022-08-25T08:23:41.087Z,78.75
2022-08-25T08:24:44.684Z,84.38
2022-08-25T08:25:42.086Z,73.12
2022-08-25T08:26:57.595Z,95.62
2022-08-25T08:27:42.014Z,95.62
2022-08-25T08:28:41.021Z,95.62
2022-08-25T08:29:41.008Z,95.62
2022-08-25T08:30:40.985Z,95.62
2022-08-25T08:31:48.423Z,84.38
2022-08-25T08:33:06.290Z,95.62
2022-08-25T08:33:41.980Z,90.00
2022-08-25T08:34:40.946Z,90.00
2022-08-25T08:35:41.127Z,90.00
2022-08-25T08:36:40.924Z,90.00
2022-08-25T08:37:40.952Z,90.00
2022-08-25T08:38:40.902Z,84.38
2022-08-25T08:39:40.905Z,84.38
2022-08-25T08:40:40.911Z,78.75
2022-08-25T08:42:09.626Z,90.00
2022-08-25T08:42:41.892Z,84.38
2022-08-25T08:43:40.858Z,73.12
2022-08-25T08:44:40.896Z,56.25
2022-08-25T08:45:44.107Z,56.25
2022-08-25T08:46:40.942Z,78.75
2022-08-25T08:47:40.811Z,84.38
2022-08-25T08:48:40.805Z,90.00
2022-08-25T08:49:40.825Z,95.62
2022-08-25T08:50:40.778Z,95.62
2022-08-25T08:51:40.783Z,101.25
2022-08-25T08:52:40.754Z,84.38
2022-08-25T08:53:40.793Z,78.75
2022-08-25T08:54:41.168Z,67.50
2022-08-25T08:55:40.736Z,90.00
2022-08-25T08:56:45.303Z,61.88
2022-08-25T08:57:41.781Z,67.50
2022-08-25T08:58:40.723Z,67.50
2022-08-25T08:59:40.698Z,56.25
2022-08-25T09:00:40.682Z,56.25
2022-08-25T09:01:40.718Z,50.62
2022-08-25T09:02:52.022Z,50.62
2022-08-25T09:03:41.689Z,61.88
2022-08-25T09:04:40.646Z,67.50
2022-08-25T09:05:44.947Z,67.50
2022-08-25T09:11:18.967Z,95.62
2022-08-25T09:12:26.066Z,95.62
2022-08-25T09:13:18.368Z,101.25
2022-08-25T09:14:18.408Z,106.88
2022-08-25T09:15:18.325Z,101.25
2022-08-25T09:16:18.321Z,95.62
2022-08-25T09:17:19.296Z,90.00
2022-08-25T09:18:18.288Z,73.12
2022-08-25T09:19:23.522Z,90.00
2022-08-25T09:20:19.472Z,90.00
2022-08-25T09:21:18.251Z,90.00
2022-08-25T09:22:33.554Z,84.38
2022-08-25T09:23:20.285Z,67.50
2022-08-25T09:24:18.234Z,78.75
2022-08-25T09:25:29.542Z,56.25
2022-08-25T09:26:19.187Z,61.88
2022-08-25T09:27:25.850Z,61.88
2022-08-25T09:28:18.191Z,90.00
2022-08-25T09:29:18.158Z,73.12
2022-08-25T09:30:18.158Z,73.12
2022-08-25T09:31:18.262Z,78.75
2022-08-25T09:32:22.535Z,78.75
2022-08-25T09:33:20.994Z,73.12
2022-08-25T09:34:18.101Z,84.38
2022-08-25T09:35:18.091Z,90.00
2022-08-25T09:36:18.078Z,78.75
2022-08-25T09:37:18.089Z,112.50
2022-08-25T09:38:18.113Z,106.88
2022-08-25T09:39:18.114Z,106.88
2022-08-25T09:40:18.219Z,106.88
2022-08-25T09:41:18.218Z,106.88
2022-08-25T09:42:21.980Z,106.88
2022-08-25T09:43:19.021Z,101.25
2022-08-25T09:44:18.012Z,78.75
2022-08-25T09:45:17.984Z,73.12
2022-08-25T09:46:18.164Z,73.12
2022-08-25T09:47:18.106Z,101.25
2022-08-25T09:48:18.034Z,73.12
2022-08-25T09:49:17.943Z,73.12
2022-08-25T09:50:18.571Z,73.12
2022-08-25T09:51:17.940Z,95.62
2022-08-25T09:52:17.931Z,106.88
2022-08-25T09:53:18.924Z,106.88
2022-08-25T09:54:17.892Z,78.75
2022-08-25T09:55:17.881Z,78.75
2022-08-25T09:56:17.877Z,73.12
2022-08-25T09:57:17.894Z,67.50
2022-08-25T09:58:17.857Z,67.50
2022-08-25T09:59:17.839Z,78.75
2022-08-25T10:00:17.827Z,90.00
2022-08-25T10:01:17.871Z,112.50
2022-08-25T10:02:17.830Z,84.38
2022-08-25T10:03:17.820Z,84.38
2022-08-25T10:04:20.862Z,106.88
2022-08-25T10:05:17.812Z,112.50
2022-08-25T10:06:17.768Z,112.50
2022-08-25T10:07:17.776Z,101.25
2022-08-25T10:08:21.299Z,112.50
2022-08-25T10:09:18.747Z,106.88
2022-08-25T10:10:17.722Z,106.88
2022-08-25T10:11:17.725Z,106.88
2022-08-25T10:12:17.719Z,106.88
2022-08-25T10:13:17.688Z,112.50
2022-08-25T10:14:18.674Z,112.50
2022-08-25T10:15:30.113Z,112.50
2022-08-25T10:16:24.309Z,112.50
2022-08-25T10:17:18.676Z,112.50
2022-08-25T10:18:17.638Z,112.50
2022-08-25T10:19:17.623Z,112.50
2022-08-25T10:20:17.630Z,112.50
2022-08-25T10:21:17.611Z,112.50
2022-08-25T10:22:17.589Z,112.50
2022-08-25T10:23:17.576Z,112.50
2022-08-25T10:24:17.580Z,95.62
2022-08-25T10:25:17.555Z,78.75
2022-08-25T10:26:17.541Z,78.75
2022-08-25T10:27:17.563Z,95.62
2022-08-25T10:28:17.522Z,78.75
2022-08-25T10:29:17.511Z,101.25
2022-08-25T10:30:17.497Z,73.12
2022-08-25T10:31:17.563Z,73.12
2022-08-25T10:32:17.496Z,78.75
2022-08-25T10:33:17.650Z,73.12
2022-08-25T10:34:17.476Z,73.12
2022-08-25T10:35:17.445Z,73.12
2022-08-25T10:36:17.432Z,95.62
2022-08-25T10:37:17.422Z,112.50
2022-08-25T10:38:21.793Z,112.50
2022-08-25T10:39:34.446Z,78.75
2022-08-25T10:40:18.410Z,78.75
2022-08-25T10:41:17.373Z,90.00
2022-08-25T10:42:17.363Z,78.75
2022-08-25T10:43:17.374Z,67.50
2022-08-25T10:44:17.341Z,73.12
2022-08-25T10:45:21.765Z,101.25
2022-08-25T10:46:18.729Z,90.00
2022-08-25T10:47:17.305Z,90.00
2022-08-25T10:48:17.318Z,90.00
2022-08-25T10:49:17.304Z,78.75
2022-08-25T10:50:17.273Z,101.25
2022-08-25T10:51:20.581Z,73.12
2022-08-25T10:52:18.252Z,78.75
2022-08-25T10:53:17.241Z,84.38
2022-08-25T10:54:17.260Z,73.12
2022-08-25T10:55:17.222Z,84.38
2022-08-25T10:56:17.211Z,73.12
2022-08-25T10:57:17.218Z,84.38
2022-08-25T10:58:17.185Z,106.88
2022-08-25T10:59:17.212Z,106.88
2022-08-25T11:00:17.183Z,101.25
2022-08-25T11:01:17.223Z,101.25
2022-08-25T11:02:17.147Z,106.88
2022-08-25T11:03:17.143Z,106.88
2022-08-25T11:04:17.117Z,84.38
2022-08-25T11:05:17.125Z,101.25
2022-08-25T11:06:18.097Z,78.75
2022-08-25T11:07:17.102Z,78.75
2022-08-25T11:08:17.078Z,78.75
2022-08-25T11:09:17.082Z,78.75
2022-08-25T11:10:17.174Z,84.38
2022-08-25T11:11:17.073Z,78.75
2022-08-25T11:12:17.078Z,78.75
2022-08-25T11:13:17.046Z,78.75
2022-08-25T11:14:17.005Z,106.88
2022-08-25T11:15:17.028Z,112.50
2022-08-25T11:16:19.225Z,112.50
2022-08-25T11:17:17.095Z,112.50
2022-08-25T11:18:16.979Z,112.50
2022-08-25T11:19:16.949Z,112.50
2022-08-25T11:20:19.451Z,112.50
2022-08-25T11:21:17.944Z,112.50
2022-08-25T11:22:19.279Z,106.88
2022-08-25T11:23:16.911Z,106.88
2022-08-25T11:24:16.915Z,106.88
2022-08-25T11:25:18.378Z,106.88
2022-08-25T11:26:16.871Z,106.88
2022-08-25T11:27:17.433Z,101.25
2022-08-25T11:28:16.858Z,106.88
2022-08-25T11:29:16.840Z,95.62
2022-08-25T11:30:16.826Z,101.25
2022-08-25T11:31:16.898Z,106.88
2022-08-25T11:32:16.805Z,73.12
2022-08-25T11:33:16.810Z,67.50
2022-08-25T11:34:19.576Z,67.50
2022-08-25T11:35:16.767Z,67.50
2022-08-25T11:36:16.759Z,67.50
2022-08-25T11:37:16.776Z,67.50
2022-08-25T11:38:16.736Z,67.50
2022-08-25T11:39:16.753Z,106.88
2022-08-25T11:40:16.795Z,106.88
2022-08-25T11:41:16.704Z,106.88
2022-08-25T11:42:16.695Z,84.38
2022-08-25T11:43:16.684Z,73.12
2022-08-25T11:44:16.691Z,73.12
2022-08-25T11:45:16.675Z,73.12
2022-08-25T11:46:16.787Z,67.50
2022-08-25T11:47:21.146Z,61.88
2022-08-25T11:48:17.622Z,73.12
2022-08-25T11:49:16.638Z,61.88
2022-08-25T11:50:16.603Z,61.88
2022-08-25T11:51:16.623Z,67.50
2022-08-25T11:52:16.582Z,67.50
2022-08-25T11:53:16.569Z,61.88
2022-08-25T11:54:16.567Z,56.25
2022-08-25T11:55:16.550Z,61.88
2022-08-25T11:56:16.555Z,67.50
2022-08-25T11:57:16.539Z,78.75
2022-08-25T11:58:16.897Z,118.12
2022-08-25T11:59:16.500Z,73.12
2022-08-25T12:00:16.491Z,112.50
2022-08-25T12:01:16.496Z,67.50
2022-08-25T12:02:16.466Z,67.50
2022-08-25T12:03:16.459Z,118.12
2022-08-25T12:04:16.579Z,118.12
2022-08-25T12:05:16.646Z,118.12
2022-08-25T12:06:16.429Z,123.75
2022-08-25T12:07:16.411Z,123.75
2022-08-25T12:08:16.401Z,95.62
2022-08-25T12:09:16.431Z,78.75
2022-08-25T12:10:16.394Z,73.12
2022-08-25T12:11:16.363Z,67.50
2022-08-25T12:12:16.357Z,67.50
2022-08-25T12:13:16.367Z,67.50
2022-08-25T12:14:16.335Z,67.50
2022-08-25T12:15:16.331Z,67.50
2022-08-25T12:16:16.343Z,78.75
2022-08-25T12:17:16.297Z,135.00
2022-08-25T12:18:16.304Z,129.38
2022-08-25T12:19:16.274Z,129.38
2022-08-25T12:20:16.291Z,129.38
2022-08-25T12:21:16.283Z,123.75
2022-08-25T12:22:16.245Z,123.75
2022-08-25T12:23:16.252Z,123.75
2022-08-25T12:24:16.224Z,123.75
2022-08-25T12:25:16.205Z,123.75
2022-08-25T12:26:16.219Z,123.75
2022-08-25T12:27:16.222Z,129.38
2022-08-25T12:28:16.197Z,129.38
2022-08-25T12:29:16.172Z,84.38
2022-08-25T12:30:16.202Z,84.38
2022-08-25T12:31:16.238Z,135.00
2022-08-25T12:32:16.153Z,129.38
2022-08-25T12:33:16.156Z,129.38
2022-08-25T12:34:16.111Z,129.38
2022-08-25T12:35:16.101Z,118.12
2022-08-25T12:36:16.090Z,123.75
2022-08-25T12:37:16.095Z,123.75
2022-08-25T12:38:16.101Z,135.00
2022-08-25T12:39:16.064Z,140.62
2022-08-25T12:40:16.077Z,140.62
2022-08-25T12:41:16.036Z,146.25
2022-08-25T12:42:16.030Z,146.25
2022-08-25T12:43:16.036Z,112.50
2022-08-25T12:44:16.020Z,78.75
2022-08-25T12:45:15.995Z,78.75
2022-08-25T12:46:16.023Z,73.12
2022-08-25T12:47:15.990Z,67.50
2022-08-25T12:48:15.963Z,112.50
2022-08-25T12:49:15.969Z,73.12
2022-08-25T12:50:16.027Z,67.50
2022-08-25T12:51:15.930Z,67.50
2022-08-25T12:52:15.926Z,73.12
2022-08-25T12:53:15.911Z,78.75
2022-08-25T12:54:19.205Z,106.88
2022-08-25T12:55:16.885Z,151.88
2022-08-25T12:56:15.893Z,151.88
2022-08-25T12:57:15.886Z,146.25
2022-08-25T12:58:15.855Z,146.25
2022-08-25T12:59:15.865Z,146.25
2022-08-25T13:00:15.917Z,146.25
2022-08-25T13:01:32.981Z,146.25
2022-08-25T13:02:16.930Z,140.62